Time;durP1;ratioP1;P1;durP2;ratioP2;P2;SDS_P1;SDS_P2;PMS_P1;PMS_P2;Temp;Humidity;BMP_temperature;BMP_pressure;BME280_temperature;BME280_humidity;BME280_pressure;Samples;Min_cycle;Max_cycle;Signal;HPM_P1;HPM_P2
2022/01/17 00:02:07;;;;;;;;;;;;;;;5.96;79.98;103039.59;5018102;28;19921;-75
2022/01/17 00:04:32;;;;;;;;;;;;;;;5.97;79.93;103038.72;5014410;28;19922;-74
2022/01/17 00:06:57;;;;;;;;;;;;;;;5.93;80.43;103043.03;5017407;28;20262;-75
2022/01/17 00:09:23;;;;;;;;;;;;;;;5.96;79.51;103050.88;5019527;28;20157;-75
2022/01/17 00:11:50;;;;;;;;;;;;;;;5.94;80.45;103052.63;5020357;28;20416;-74
2022/01/17 00:14:18;;;;;;;;;;;;;;;5.92;80.57;103050.84;5021785;28;19955;-75
2022/01/17 00:21:49;;;;;;;;;;;;;;;5.93;81.60;103037.84;5017892;28;19948;-77
2022/01/17 00:24:16;;;;;;;;;;;;;;;5.93;81.12;103045.66;5010622;28;20337;-75
2022/01/17 00:26:41;;;;;;;;;;;;;;;5.87;80.67;103050.81;5019464;28;20028;-77
2022/01/17 00:29:07;;;;;;;;;;;;;;;5.86;80.91;103055.16;5018566;28;20075;-77
2022/01/17 00:31:32;;;;;;;;;;;;;;;5.91;80.25;103051.69;5013179;28;19917;-75
2022/01/17 00:33:57;;;;;;;;;;;;;;;5.88;81.08;103044.72;5016341;28;19929;-78
2022/01/17 00:36:23;;;;;;;;;;;;;;;5.86;79.39;103041.22;5006459;28;19929;-74
2022/01/17 00:38:49;;;;;;;;;;;;;;;5.83;80.01;103041.22;5034206;28;20091;-73
2022/01/17 00:41:14;;;;;;;;;;;;;;;5.80;79.51;103017.72;5016508;28;20351;-74
2022/01/17 00:43:40;;;;;;;;;;;;;;;5.76;79.52;102998.56;5017042;28;20298;-74
2022/01/17 00:46:05;;;;;;;;;;;;;;;5.73;78.47;102996.78;5023555;28;19921;-76
2022/01/17 00:48:30;;;;;;;;;;;;;;;5.67;79.17;103001.09;5021098;28;20401;-74
2022/01/17 00:50:57;;;;;;;;;;;;;;;5.62;78.52;103005.38;5019169;28;19936;-75
2022/01/17 00:53:22;;;;;;;;;;;;;;;5.59;78.80;103011.44;5019481;28;19925;-74
2022/01/17 00:55:48;;;;;;;;;;;;;;;5.51;78.97;103018.34;5026023;28;19924;-76
2022/01/17 00:58:13;;;;;;;;;;;;;;;5.54;77.66;103013.13;5006943;28;20023;-75
2022/01/17 01:00:40;;;;;;;;;;;;;;;5.47;77.96;103006.97;5017011;28;19932;-75
2022/01/17 01:03:06;;;;;;;;;;;;;;;5.40;78.48;103026.88;5021796;28;19917;-76
2022/01/17 01:05:31;;;;;;;;;;;;;;;5.32;79.03;103035.50;5024129;28;19932;-75
2022/01/17 01:07:57;;;;;;;;;;;;;;;5.25;80.21;103042.38;5023902;28;20275;-78
2022/01/17 01:10:22;;;;;;;;;;;;;;;5.20;80.46;103044.03;5025069;28;19932;-73
2022/01/17 01:12:49;;;;;;;;;;;;;;;5.22;80.46;103048.44;5019298;28;19964;-74
2022/01/17 01:28:54;;;;;;;;;;;;;;;4.86;82.88;103096.63;5011848;28;19975;-75
2022/01/17 01:31:29;;;;;;;;;;;;;;;4.75;83.59;103099.06;5024787;28;19925;-73
2022/01/17 01:34:02;;;;;;;;;;;;;;;4.70;84.14;103107.66;5012845;28;20367;-76
2022/01/17 01:36:28;;;;;;;;;;;;;;;4.62;84.20;103092.81;5027162;28;19920;-75
2022/01/17 01:38:54;;;;;;;;;;;;;;;4.54;84.54;103098.75;5019775;28;19925;-73
2022/01/17 01:41:20;;;;;;;;;;;;;;;4.53;84.40;103092.69;5025533;28;20019;-74
2022/01/17 01:43:46;;;;;;;;;;;;;;;4.46;84.82;103102.13;5028329;28;19939;-72
2022/01/17 01:46:14;;;;;;;;;;;;;;;4.45;85.03;103095.16;5025654;28;20355;-73
2022/01/17 01:48:40;;;;;;;;;;;;;;;4.41;85.79;103084.69;5019189;28;19943;-73
2022/01/17 01:51:05;;;;;;;;;;;;;;;4.36;85.79;103088.91;5021745;28;19917;-74
2022/01/17 01:53:31;;;;;;;;;;;;;;;4.29;86.65;103094.03;5025637;28;20294;-72
2022/01/17 01:55:57;;;;;;;;;;;;;;;4.24;86.72;103087.00;5025792;28;19982;-72
2022/01/17 01:58:23;;;;;;;;;;;;;;;4.20;86.91;103093.00;5006513;28;19921;-72
2022/01/17 02:00:49;;;;;;;;;;;;;;;4.15;87.61;103095.53;5016787;28;20258;-75
2022/01/17 02:03:14;;;;;;;;;;;;;;;4.05;88.35;103097.13;5029128;28;19929;-73
2022/01/17 02:05:40;;;;;;;;;;;;;;;3.96;88.67;103104.78;5023755;28;19925;-72
2022/01/17 02:08:08;;;;;;;;;;;;;;;3.97;89.20;103111.72;5020006;28;19956;-73
2022/01/17 02:10:33;;;;;;;;;;;;;;;3.93;89.67;103122.91;5021266;28;20438;-74
2022/01/17 02:12:58;;;;;;;;;;;;;;;3.86;89.60;103125.38;5027288;28;19932;-74
2022/01/17 02:15:24;;;;;;;;;;;;;;;3.97;90.14;103138.59;5024081;28;19929;-72
2022/01/17 02:23:14;;;;;;;;;;;;;;;3.97;90.88;103142.94;5024194;28;20340;-73
2022/01/17 02:25:40;;;;;;;;;;;;;;;3.95;90.92;103140.28;5028253;28;19973;-74
2022/01/17 02:28:05;;;;;;;;;;;;;;;3.89;91.13;103135.00;5024650;28;19921;-76
2022/01/17 02:30:32;;;;;;;;;;;;;;;3.90;92.28;103136.75;5026779;28;19924;-76
2022/01/17 02:33:12;;;;;;;;;;;;;;;3.96;92.78;103141.19;5023124;28;19921;-76
2022/01/17 02:35:38;;;;;;;;;;;;;;;4.00;92.55;103129.97;5025279;28;20599;-76
2022/01/17 02:38:03;;;;;;;;;;;;;;;3.99;92.69;103136.00;5020193;28;19929;-74
2022/01/17 02:40:28;;;;;;;;;;;;;;;3.95;93.12;103135.09;5023597;28;20506;-74
2022/01/17 02:46:24;;;;;;;;;;;;;;;4.09;94.79;103147.47;5041325;28;20017;-77
2022/01/17 02:48:22;;;;;;;;;;;;;;;4.08;95.38;103146.56;5058725;28;19985;-77
2022/01/17 02:50:48;;;;;;;;;;;;;;;4.15;95.67;103134.56;5045498;28;20439;-76
2022/01/17 02:53:13;;;;;;;;;;;;;;;4.20;96.03;103130.31;5017538;28;20015;-76
2022/01/17 02:55:40;;;;;;;;;;;;;;;4.18;95.93;103124.22;5042843;28;20611;-76
2022/01/17 02:58:06;;;;;;;;;;;;;;;4.34;96.09;103125.34;5039998;28;19925;-75
2022/01/17 03:00:31;;;;;;;;;;;;;;;4.28;96.24;103123.50;5040374;28;19943;-74
2022/01/17 03:02:57;;;;;;;;;;;;;;;4.38;96.32;103114.16;5046753;28;19920;-74
2022/01/17 03:05:22;;;;;;;;;;;;;;;4.38;95.88;103111.53;5041616;28;19929;-76
2022/01/17 03:07:48;;;;;;;;;;;;;;;4.36;96.27;103107.13;5042309;28;19917;-75
2022/01/17 03:13:10;;;;;;;;;;;;;;;4.46;96.54;103096.91;5044306;28;20054;-75
2022/01/17 03:15:36;;;;;;;;;;;;;;;4.38;96.18;103106.34;5039464;28;19917;-76
2022/01/17 03:18:02;;;;;;;;;;;;;;;4.42;96.51;103102.06;5039862;28;19928;-76
2022/01/17 03:20:28;;;;;;;;;;;;;;;4.36;97.23;103100.22;5036919;28;19936;-75
2022/01/17 03:22:53;;;;;;;;;;;;;;;4.41;97.35;103092.50;5035846;28;19924;-75
2022/01/17 03:25:18;;;;;;;;;;;;;;;4.42;97.13;103110.72;5037918;28;20007;-76
2022/01/17 03:27:44;;;;;;;;;;;;;;;4.43;97.47;103109.00;5042481;28;19936;-77
2022/01/17 03:30:09;;;;;;;;;;;;;;;4.36;98.26;103110.63;5039073;28;20156;-78
2022/01/17 03:32:35;;;;;;;;;;;;;;;4.35;98.16;103116.69;5040286;28;19928;-76
2022/01/17 03:35:00;;;;;;;;;;;;;;;4.41;98.51;103124.56;5037593;28;19917;-76
2022/01/17 03:37:26;;;;;;;;;;;;;;;4.40;98.56;103116.75;5040670;28;19928;-76
2022/01/17 03:39:52;;;;;;;;;;;;;;;4.52;97.96;103114.34;5023880;28;20003;-76
2022/01/17 03:42:18;;;;;;;;;;;;;;;4.62;98.58;103117.97;5036437;28;20013;-77
2022/01/17 03:44:44;;;;;;;;;;;;;;;4.70;98.06;103128.50;5039321;28;20370;-77
2022/01/17 03:47:10;;;;;;;;;;;;;;;4.81;98.26;103132.13;5038221;28;19928;-75
2022/01/17 03:49:35;;;;;;;;;;;;;;;4.90;97.73;103134.00;5037866;28;20374;-77
2022/01/17 03:52:01;;;;;;;;;;;;;;;4.93;97.09;103136.66;5038866;28;20012;-76
2022/01/17 03:54:26;;;;;;;;;;;;;;;4.89;97.21;103137.44;5033592;28;19917;-76
2022/01/17 03:56:51;;;;;;;;;;;;;;;4.90;96.95;103136.59;5039212;28;19978;-76
2022/01/17 03:59:17;;;;;;;;;;;;;;;4.87;97.53;103140.03;5042556;28;19932;-77
2022/01/17 04:01:42;;;;;;;;;;;;;;;4.87;97.74;103144.38;5035719;28;20020;-76
2022/01/17 04:04:07;;;;;;;;;;;;;;;4.86;97.80;103150.41;5041599;28;20291;-75
2022/01/17 04:06:35;;;;;;;;;;;;;;;4.83;98.05;103142.59;5036248;28;20472;-75
2022/01/17 04:09:00;;;;;;;;;;;;;;;4.79;97.79;103133.84;5041212;28;19928;-74
2022/01/17 04:11:26;;;;;;;;;;;;;;;4.75;98.94;103132.91;5031881;28;19979;-75
2022/01/17 04:13:51;;;;;;;;;;;;;;;4.71;98.89;103133.75;5035288;28;19996;-77
2022/01/17 04:16:16;;;;;;;;;;;;;;;4.71;99.67;103140.66;5034211;28;19917;-77
2022/01/17 04:18:42;;;;;;;;;;;;;;;4.69;99.37;103144.97;5038737;28;19932;-76
2022/01/17 04:21:08;;;;;;;;;;;;;;;4.65;100.00;103146.66;5040807;28;20402;-75
2022/01/17 04:23:33;;;;;;;;;;;;;;;4.59;100.00;103143.97;5046462;28;20016;-77
2022/01/17 04:25:59;;;;;;;;;;;;;;;4.67;100.00;103152.75;5033370;28;19928;-76
2022/01/17 04:28:24;;;;;;;;;;;;;;;4.62;100.00;103160.50;5045967;28;20460;-77
2022/01/17 04:30:49;;;;;;;;;;;;;;;4.63;100.00;103151.84;5045208;28;19917;-77
2022/01/17 04:33:15;;;;;;;;;;;;;;;4.67;100.00;103157.09;5043009;28;20386;-77
2022/01/17 04:35:41;;;;;;;;;;;;;;;4.61;100.00;103150.06;5040573;28;19920;-77
2022/01/17 04:38:07;;;;;;;;;;;;;;;4.61;100.00;103152.69;5042551;28;20515;-78
2022/01/17 04:40:36;;;;;;;;;;;;;;;4.66;100.00;103156.22;5023523;28;20437;-77
2022/01/17 04:43:04;;;;;;;;;;;;;;;4.80;100.00;103169.44;5045590;28;20008;-77
2022/01/17 04:45:30;;;;;;;;;;;;;;;4.87;100.00;103160.00;5047538;28;19920;-76
2022/01/17 04:47:55;;;;;;;;;;;;;;;4.89;100.00;103159.19;5041052;28;20408;-76
2022/01/17 04:50:22;;;;;;;;;;;;;;;4.98;100.00;103153.22;5034882;28;19924;-76
2022/01/17 04:52:48;;;;;;;;;;;;;;;5.01;100.00;103158.47;5045401;28;20115;-77
2022/01/17 04:55:14;;;;;;;;;;;;;;;5.01;100.00;103153.25;5049283;28;19921;-76
2022/01/17 04:57:40;;;;;;;;;;;;;;;4.99;100.00;103149.75;5044840;28;19982;-75
2022/01/17 05:00:07;;;;;;;;;;;;;;;4.97;100.00;103148.84;5021803;28;19927;-75
2022/01/17 05:02:33;;;;;;;;;;;;;;;4.91;100.00;103148.78;5036534;28;20011;-74
2022/01/17 05:04:58;;;;;;;;;;;;;;;4.84;100.00;103149.56;5035747;28;20035;-75
2022/01/17 05:07:24;;;;;;;;;;;;;;;4.77;100.00;103159.00;5044294;28;19936;-76
2022/01/17 05:09:49;;;;;;;;;;;;;;;4.68;100.00;103158.88;5041295;28;19921;-77
2022/01/17 05:12:15;;;;;;;;;;;;;;;4.73;100.00;103165.91;5032181;28;19924;-76
2022/01/17 05:14:43;;;;;;;;;;;;;;;4.72;100.00;103166.75;5045396;28;20428;-77
2022/01/17 05:19:49;;;;;;;;;;;;;;;4.69;100.00;103169.28;5040957;28;19964;-75
2022/01/17 05:22:16;;;;;;;;;;;;;;;4.73;100.00;103168.50;5041997;28;19964;-76
2022/01/17 05:24:41;;;;;;;;;;;;;;;4.73;100.00;103171.09;5043146;28;19978;-76
2022/01/17 05:27:06;;;;;;;;;;;;;;;4.78;100.00;103173.78;5043611;28;20336;-74
2022/01/17 05:29:32;;;;;;;;;;;;;;;4.72;100.00;103174.56;5045212;28;19992;-75
2022/01/17 05:31:57;;;;;;;;;;;;;;;4.67;100.00;103168.38;5044653;28;20417;-77
2022/01/17 05:34:22;;;;;;;;;;;;;;;4.65;100.00;103167.47;5044163;28;19971;-75
2022/01/17 05:36:48;;;;;;;;;;;;;;;4.59;100.00;103175.22;5037534;28;19994;-75
2022/01/17 05:39:14;;;;;;;;;;;;;;;4.59;100.00;103180.41;5038656;28;20326;-75
2022/01/17 05:41:39;;;;;;;;;;;;;;;4.53;100.00;103173.38;5045440;28;19920;-77
2022/01/17 05:44:05;;;;;;;;;;;;;;;4.55;100.00;103178.59;5014941;28;19928;-77
2022/01/17 05:46:30;;;;;;;;;;;;;;;4.55;100.00;103179.50;5025106;28;20346;-77
2022/01/17 05:48:55;;;;;;;;;;;;;;;4.59;100.00;103183.00;5044963;28;19924;-76
2022/01/17 05:51:21;;;;;;;;;;;;;;;4.53;100.00;103182.91;5038168;28;19917;-75
2022/01/17 05:53:46;;;;;;;;;;;;;;;4.46;100.00;103184.56;5037646;28;20011;-76
2022/01/17 05:56:11;;;;;;;;;;;;;;;4.40;100.00;103193.13;5044703;28;20401;-76
2022/01/17 05:58:37;;;;;;;;;;;;;;;4.39;100.00;103188.78;5038687;28;20008;-78
2022/01/17 06:01:02;;;;;;;;;;;;;;;4.36;100.00;103196.53;5039996;28;19932;-77
2022/01/17 06:03:27;;;;;;;;;;;;;;;4.37;100.00;103184.38;5036683;28;20006;-78
2022/01/17 06:05:53;;;;;;;;;;;;;;;4.33;100.00;103178.25;5037373;28;19980;-78
2022/01/17 06:08:18;;;;;;;;;;;;;;;4.36;100.00;103154.88;5037060;28;20338;-79
2022/01/17 06:10:44;;;;;;;;;;;;;;;4.36;100.00;103167.00;5037899;28;19980;-76
2022/01/17 06:13:09;;;;;;;;;;;;;;;4.26;100.00;103177.25;5020476;28;20443;-78
2022/01/17 06:15:35;;;;;;;;;;;;;;;4.27;100.00;103180.75;5014327;28;19917;-76
2022/01/17 06:18:00;;;;;;;;;;;;;;;4.24;100.00;103167.69;5041917;28;19921;-75
2022/01/17 06:20:25;;;;;;;;;;;;;;;4.20;100.00;103178.88;5042529;28;20425;-76
2022/01/17 06:22:51;;;;;;;;;;;;;;;4.23;100.00;103187.63;5032238;28;20370;-74
2022/01/17 06:25:16;;;;;;;;;;;;;;;4.29;100.00;103187.72;5040379;28;19921;-75
2022/01/17 06:27:41;;;;;;;;;;;;;;;4.32;100.00;103192.09;5044328;28;19990;-75
2022/01/17 06:30:08;;;;;;;;;;;;;;;4.39;100.00;103196.59;5042095;28;19917;-75
2022/01/17 06:32:34;;;;;;;;;;;;;;;4.46;100.00;103198.44;5042038;28;19943;-75
2022/01/17 06:35:03;;;;;;;;;;;;;;;4.53;100.00;103198.50;5036250;28;19924;-75
2022/01/17 06:37:28;;;;;;;;;;;;;;;4.60;100.00;103197.78;5032438;28;19956;-77
2022/01/17 06:39:54;;;;;;;;;;;;;;;4.67;100.00;103207.44;5043711;28;19925;-76
2022/01/17 06:42:19;;;;;;;;;;;;;;;4.70;100.00;103209.22;5041933;28;20003;-76
2022/01/17 06:44:44;;;;;;;;;;;;;;;4.74;100.00;103196.25;5029562;28;19956;-75
2022/01/17 06:47:09;;;;;;;;;;;;;;;4.79;99.97;103201.56;5038377;28;19916;-75
2022/01/17 06:49:35;;;;;;;;;;;;;;;4.84;99.63;103201.66;5043983;28;19916;-76
2022/01/17 06:52:00;;;;;;;;;;;;;;;4.90;99.70;103200.00;5040545;28;20360;-76
2022/01/17 06:54:26;;;;;;;;;;;;;;;5.03;98.77;103214.09;5041699;28;19921;-76
2022/01/17 06:56:51;;;;;;;;;;;;;;;5.06;98.80;103229.78;5043576;28;20321;-76
2022/01/17 06:59:16;;;;;;;;;;;;;;;5.06;97.80;103236.69;5041240;28;19921;-74
2022/01/17 07:01:42;;;;;;;;;;;;;;;5.06;97.88;103250.63;5037679;28;20000;-75
2022/01/17 07:04:07;;;;;;;;;;;;;;;5.17;97.69;103273.34;5038591;28;19963;-74
2022/01/17 07:06:33;;;;;;;;;;;;;;;5.25;97.40;103276.94;5030093;28;19929;-73
2022/01/17 07:08:58;;;;;;;;;;;;;;;5.29;97.07;103272.66;5036760;28;19921;-73
2022/01/17 07:11:26;;;;;;;;;;;;;;;5.28;96.98;103277.00;5035069;28;19952;-73
2022/01/17 07:13:51;;;;;;;;;;;;;;;5.31;97.28;103277.03;5039465;28;19966;-73
2022/01/17 07:16:16;;;;;;;;;;;;;;;5.27;97.48;103264.81;5035780;28;20165;-73
2022/01/17 07:18:42;;;;;;;;;;;;;;;5.30;97.94;103259.63;5037672;28;19921;-79
2022/01/17 07:21:07;;;;;;;;;;;;;;;5.25;98.00;103251.75;5030639;28;19971;-79
2022/01/17 07:23:33;;;;;;;;;;;;;;;5.30;97.75;103256.16;5040073;28;19921;-78
2022/01/17 07:25:58;;;;;;;;;;;;;;;5.33;98.48;103261.44;5042320;28;19917;-79
2022/01/17 07:28:24;;;;;;;;;;;;;;;5.42;98.26;103261.56;5042974;28;20382;-78
2022/01/17 07:30:49;;;;;;;;;;;;;;;5.40;97.75;103266.72;5041788;28;20481;-77
2022/01/17 07:33:14;;;;;;;;;;;;;;;5.48;97.86;103268.59;5036749;28;19966;-78
2022/01/17 07:35:40;;;;;;;;;;;;;;;5.47;98.31;103272.91;5039639;28;19924;-79
2022/01/17 07:38:06;;;;;;;;;;;;;;;5.50;97.98;103269.50;5037438;28;20007;-77
2022/01/17 07:40:32;;;;;;;;;;;;;;;5.49;97.77;103280.78;5029809;28;19936;-80
2022/01/17 07:42:57;;;;;;;;;;;;;;;5.48;98.32;103279.00;5036573;28;19932;-76
2022/01/17 07:45:25;;;;;;;;;;;;;;;5.46;98.19;103283.31;5039119;28;19925;-78
2022/01/17 07:50:18;;;;;;;;;;;;;;;5.47;98.35;103288.56;5042103;28;19928;-77
2022/01/17 07:52:43;;;;;;;;;;;;;;;5.54;98.69;103286.91;5032772;28;20387;-74
2022/01/17 07:55:09;;;;;;;;;;;;;;;5.55;98.66;103294.78;5035763;28;19967;-75
2022/01/17 07:57:35;;;;;;;;;;;;;;;5.62;98.70;103290.53;5044709;28;19932;-77
2022/01/17 08:00:00;;;;;;;;;;;;;;;5.56;98.25;103283.50;5046079;28;20004;-76
2022/01/17 08:02:26;;;;;;;;;;;;;;;5.57;98.60;103295.66;5036131;28;20044;-78
2022/01/17 08:04:51;;;;;;;;;;;;;;;5.56;99.00;103282.59;5043445;28;19932;-75
2022/01/17 08:07:16;;;;;;;;;;;;;;;5.61;98.96;103291.38;5045270;28;20672;-77
2022/01/17 08:09:42;;;;;;;;;;;;;;;5.62;98.80;103282.69;5042277;28;20437;-76
2022/01/17 08:12:08;;;;;;;;;;;;;;;5.63;99.08;103273.13;5041909;28;19999;-75
2022/01/17 08:14:34;;;;;;;;;;;;;;;5.75;98.15;103283.72;5047693;28;19971;-82
2022/01/17 08:17:00;;;;;;;;;;;;;;;5.69;99.22;103284.53;5048775;28;19932;-82
2022/01/17 08:19:25;;;;;;;;;;;;;;;5.73;98.58;103294.13;5023937;28;19941;-81
2022/01/17 08:24:32;;;;;;;;;;;;;;;5.82;98.56;103290.75;5044410;28;19927;-81
2022/01/17 08:26:58;;;;;;;;;;;;;;;5.84;97.96;103293.41;5022777;28;19956;-84
2022/01/17 08:29:25;;;;;;;;;;;;;;;5.87;97.80;103303.88;5042691;28;20075;-83
2022/01/17 08:31:51;;;;;;;;;;;;;;;5.88;97.89;103296.09;5045713;28;19920;-83
2022/01/17 08:34:17;;;;;;;;;;;;;;;5.91;97.82;103310.88;5042528;28;20592;-83
2022/01/17 08:36:43;;;;;;;;;;;;;;;5.94;97.71;103310.94;5045471;28;20352;-83
2022/01/17 08:39:10;;;;;;;;;;;;;;;5.95;98.46;103298.75;5044483;28;20095;-81
2022/01/17 08:41:36;;;;;;;;;;;;;;;5.98;97.88;103302.28;5041422;28;20371;-82
2022/01/17 08:44:01;;;;;;;;;;;;;;;5.98;97.53;103301.41;5026641;28;19967;-82
2022/01/17 08:46:26;;;;;;;;;;;;;;;6.01;98.14;103297.13;5025355;28;19951;-82
2022/01/17 08:48:53;;;;;;;;;;;;;;;6.04;98.08;103309.34;5028423;28;19925;-83
2022/01/17 08:51:18;;;;;;;;;;;;;;;6.05;98.18;103316.31;5042984;28;19924;-82
2022/01/17 08:53:44;;;;;;;;;;;;;;;6.08;98.23;103323.28;5043958;28;20395;-82
2022/01/17 08:56:10;;;;;;;;;;;;;;;6.12;97.43;103319.88;5041946;28;19921;-84
2022/01/17 08:58:35;;;;;;;;;;;;;;;6.16;97.94;103321.66;5045457;28;20271;-82
2022/01/17 09:01:01;;;;;;;;;;;;;;;6.20;97.03;103326.06;5043300;28;19917;-81
2022/01/17 09:03:26;;;;;;;;;;;;;;;6.18;97.29;103326.03;5043952;28;19921;-82
2022/01/17 09:05:52;;;;;;;;;;;;;;;6.18;97.31;103319.94;5043486;28;19933;-82
2022/01/17 09:08:18;;;;;;;;;;;;;;;6.21;97.66;103329.56;5037922;28;20377;-81
2022/01/17 09:10:44;;;;;;;;;;;;;;;6.33;96.36;103335.78;5044251;28;19917;-82
2022/01/17 09:13:10;;;;;;;;;;;;;;;6.35;96.55;103335.78;5043120;28;20660;-81
2022/01/17 09:15:36;;;;;;;;;;;;;;;6.38;96.58;103346.28;5037690;28;19917;-82
2022/01/17 09:18:02;;;;;;;;;;;;;;;6.43;96.72;103346.31;5044260;28;20492;-81
2022/01/17 09:20:27;;;;;;;;;;;;;;;6.45;96.53;103349.84;5042145;28;19925;-82
2022/01/17 09:22:52;;;;;;;;;;;;;;;6.49;96.03;103349.88;5046227;28;19978;-82
2022/01/17 09:25:18;;;;;;;;;;;;;;;6.52;96.25;103348.19;5032142;28;19975;-83
2022/01/17 09:27:43;;;;;;;;;;;;;;;6.65;96.04;103356.16;5043818;28;20740;-81
2022/01/17 09:30:10;;;;;;;;;;;;;;;6.70;95.76;103356.19;5042786;28;20578;-81
2022/01/17 09:32:36;;;;;;;;;;;;;;;6.68;95.09;103362.28;5041075;28;19955;-82
2022/01/17 09:35:01;;;;;;;;;;;;;;;6.65;95.21;103361.38;5040748;28;19944;-80
2022/01/17 09:37:27;;;;;;;;;;;;;;;6.78;94.86;103358.88;5042749;28;19971;-81
2022/01/17 09:39:52;;;;;;;;;;;;;;;6.84;95.17;103361.53;5043658;28;19917;-82
2022/01/17 09:42:17;;;;;;;;;;;;;;;6.85;94.83;103357.22;5042948;28;19921;-82
2022/01/17 09:44:43;;;;;;;;;;;;;;;6.87;94.64;103374.66;5043135;28;20023;-81
2022/01/17 09:47:09;;;;;;;;;;;;;;;6.99;93.71;103376.53;5045140;28;19936;-81
2022/01/17 09:49:40;;;;;;;;;;;;;;;7.02;93.80;103376.53;5042635;28;19921;-82
2022/01/17 09:52:14;;;;;;;;;;;;;;;7.01;94.16;103376.53;5041013;28;19920;-80
2022/01/17 09:54:42;;;;;;;;;;;;;;;7.04;93.07;103376.56;5039923;28;19943;-82
2022/01/17 09:57:08;;;;;;;;;;;;;;;7.11;93.25;103396.66;5039137;28;19964;-81
2022/01/17 09:59:34;;;;;;;;;;;;;;;7.15;92.59;103398.47;5040564;28;20011;-82
2022/01/17 10:02:00;;;;;;;;;;;;;;;7.03;92.96;103399.19;5040466;28;19921;-81
2022/01/17 10:04:25;;;;;;;;;;;;;;;7.06;93.02;103408.81;5040865;28;20003;-82
2022/01/17 10:06:51;;;;;;;;;;;;;;;7.03;92.97;103411.41;5039966;28;20325;-82
2022/01/17 10:09:21;;;;;;;;;;;;;;;7.08;93.31;103405.38;5041278;28;19925;-81
2022/01/17 10:12:03;;;;;;;;;;;;;;;7.18;92.65;103413.28;5041376;28;20330;-82
2022/01/17 10:14:30;;;;;;;;;;;;;;;7.24;92.19;103400.25;5027722;28;20018;-81
2022/01/17 10:16:55;;;;;;;;;;;;;;;7.24;92.51;103408.09;5024890;28;19948;-81
2022/01/17 10:19:22;;;;;;;;;;;;;;;7.21;92.77;103413.31;5042466;28;19973;-82
2022/01/17 10:21:51;;;;;;;;;;;;;;;7.30;91.90;103410.78;5011881;28;19924;-82
2022/01/17 10:37:20;;;;;;;;;;;;;;;7.55;90.65;103417.09;5020191;28;20208;-83
2022/01/17 10:40:01;;;;;;;;;;;;;;;7.74;89.37;103419.81;5013843;28;19953;-82
2022/01/17 10:42:28;;;;;;;;;;;;;;;7.67;89.81;103415.41;5036731;28;19920;-82
2022/01/17 10:44:54;;;;;;;;;;;;;;;7.79;89.29;103406.75;5040603;28;19928;-80
2022/01/17 10:47:21;;;;;;;;;;;;;;;7.97;88.59;103396.44;5039474;28;20214;-83
2022/01/17 10:50:01;;;;;;;;;;;;;;;8.02;87.95;103405.16;5039306;28;19917;-82
2022/01/17 10:52:28;;;;;;;;;;;;;;;8.02;87.64;103399.06;5038608;28;19925;-82
2022/01/17 10:55:09;;;;;;;;;;;;;;;8.07;87.46;103393.84;5043427;28;19931;-82
2022/01/17 10:57:35;;;;;;;;;;;;;;;8.20;86.77;103388.69;5032283;28;20389;-84
2022/01/17 11:00:04;;;;;;;;;;;;;;;8.37;86.25;103387.88;5038402;28;19921;-82
2022/01/17 11:02:29;;;;;;;;;;;;;;;8.47;85.24;103400.19;5045613;28;20270;-84
2022/01/17 11:04:54;;;;;;;;;;;;;;;8.33;85.86;103404.44;5042413;28;19927;-82
2022/01/17 11:07:20;;;;;;;;;;;;;;;8.56;85.22;103403.69;5036949;28;20062;-83
2022/01/17 11:10:07;;;;;;;;;;;;;;;8.56;85.07;103414.16;5039781;28;20230;-82
2022/01/17 11:12:33;;;;;;;;;;;;;;;8.48;86.15;103428.13;5037532;28;19927;-81
2022/01/17 11:14:58;;;;;;;;;;;;;;;8.36;85.89;103433.28;5035876;28;19917;-82
2022/01/17 11:17:32;;;;;;;;;;;;;;;8.26;86.60;103431.50;5037412;28;19922;-83
2022/01/17 11:22:39;;;;;;;;;;;;;;;8.32;86.38;103442.84;5039113;28;19921;-80
2022/01/17 11:25:07;;;;;;;;;;;;;;;8.34;86.56;103445.50;5057664;28;19932;-82
2022/01/17 11:27:32;;;;;;;;;;;;;;;8.38;86.07;103425.41;5027373;28;19927;-80
2022/01/17 11:29:58;;;;;;;;;;;;;;;8.23;87.02;103428.84;5044267;28;20053;-82
2022/01/17 11:32:23;;;;;;;;;;;;;;;8.32;86.52;103436.75;5034174;28;19917;-82
2022/01/17 11:34:50;;;;;;;;;;;;;;;8.42;86.42;103441.16;5030983;28;20293;-82
2022/01/17 11:37:16;;;;;;;;;;;;;;;8.54;86.03;103442.09;5033406;28;19932;-82
2022/01/17 11:39:56;;;;;;;;;;;;;;;8.47;86.42;103438.56;5041099;28;19928;-81
2022/01/17 11:42:37;;;;;;;;;;;;;;;8.44;86.05;103447.28;5043105;28;19917;-83
2022/01/17 11:45:22;;;;;;;;;;;;;;;8.39;86.52;103459.47;5033733;28;19916;-83
2022/01/17 11:48:03;;;;;;;;;;;;;;;8.28;87.12;103451.56;5049589;28;19959;-82
2022/01/17 11:50:28;;;;;;;;;;;;;;;8.27;87.26;103459.44;5040114;28;19944;-83
2022/01/17 11:52:55;;;;;;;;;;;;;;;8.27;87.83;103448.97;5037670;28;19921;-83
2022/01/17 11:55:35;;;;;;;;;;;;;;;8.41;87.31;103462.13;5023822;28;19970;-82
2022/01/17 11:58:16;;;;;;;;;;;;;;;8.40;87.17;103461.22;5028533;28;19929;-82
2022/01/17 12:00:41;;;;;;;;;;;;;;;8.53;86.02;103466.56;5043537;28;19917;-83
2022/01/17 12:03:22;;;;;;;;;;;;;;;8.39;87.22;103472.56;5037118;28;19969;-81
2022/01/17 12:05:48;;;;;;;;;;;;;;;8.36;86.59;103477.81;5029668;28;20405;-81
2022/01/17 12:08:15;;;;;;;;;;;;;;;8.34;86.36;103476.94;5037659;28;19921;-81
2022/01/17 12:10:42;;;;;;;;;;;;;;;8.38;86.69;103473.44;5041736;28;19921;-80
2022/01/17 12:13:30;;;;;;;;;;;;;;;8.38;86.33;103460.34;5038113;28;19916;-81
2022/01/17 12:15:56;;;;;;;;;;;;;;;8.61;85.50;103450.00;5055580;28;20207;-82
2022/01/17 12:18:36;;;;;;;;;;;;;;;8.58;86.46;103449.97;5033557;28;19921;-82
2022/01/17 12:21:17;;;;;;;;;;;;;;;8.54;86.44;103445.63;5035796;28;19986;-83
2022/01/17 12:23:42;;;;;;;;;;;;;;;8.47;86.15;103431.63;5047347;28;19925;-81
2022/01/17 12:26:23;;;;;;;;;;;;;;;8.43;86.30;103418.47;5055643;28;19974;-83
2022/01/17 12:29:04;;;;;;;;;;;;;;;8.42;86.37;103399.25;5030022;28;19924;-81
2022/01/17 12:31:45;;;;;;;;;;;;;;;8.47;86.32;103405.41;5036565;28;19961;-82
2022/01/17 12:34:26;;;;;;;;;;;;;;;8.61;85.49;103426.41;5034890;28;19967;-82
2022/01/17 12:36:53;;;;;;;;;;;;;;;8.53;85.83;103459.59;5037218;28;19921;-81
2022/01/17 12:39:33;;;;;;;;;;;;;;;8.49;86.36;103465.66;5039489;28;19925;-82
2022/01/17 12:41:59;;;;;;;;;;;;;;;8.52;85.99;103468.31;5035824;28;19952;-82
2022/01/17 12:44:26;;;;;;;;;;;;;;;8.55;85.75;103476.16;5041790;28;19979;-82
2022/01/17 12:46:53;;;;;;;;;;;;;;;8.43;86.30;103479.59;5046750;28;20027;-82
2022/01/17 12:49:19;;;;;;;;;;;;;;;8.48;86.25;103483.16;5044205;28;20084;-82
2022/01/17 12:51:46;;;;;;;;;;;;;;;8.42;85.98;103490.06;5047968;28;19967;-81
2022/01/17 12:54:12;;;;;;;;;;;;;;;8.46;86.03;103492.72;5044245;28;19928;-81
2022/01/17 12:56:53;;;;;;;;;;;;;;;8.51;85.78;103470.03;5041910;28;19932;-83
2022/01/17 12:59:19;;;;;;;;;;;;;;;8.42;86.73;103456.88;5055186;28;19921;-81
2022/01/17 13:01:46;;;;;;;;;;;;;;;8.53;86.09;103462.22;5046277;28;20457;-82
2022/01/17 13:04:11;;;;;;;;;;;;;;;8.56;85.74;103466.56;5037821;28;19963;-80
2022/01/17 13:06:37;;;;;;;;;;;;;;;8.46;86.57;103463.88;5037258;28;19925;-82
2022/01/17 13:09:08;;;;;;;;;;;;;;;8.51;86.44;103445.59;5038835;28;19917;-81
2022/01/17 13:11:36;;;;;;;;;;;;;;;8.49;86.70;103474.38;5047301;28;19967;-82
2022/01/17 13:14:02;;;;;;;;;;;;;;;8.46;87.51;103471.75;5043908;28;20405;-80
2022/01/17 13:16:31;;;;;;;;;;;;;;;8.53;86.71;103467.44;5047140;28;20144;-81
2022/01/17 13:18:57;;;;;;;;;;;;;;;8.55;86.57;103483.16;5045936;28;20198;-79
2022/01/17 13:21:23;;;;;;;;;;;;;;;8.36;87.39;103507.50;5046071;28;19916;-80
2022/01/17 13:23:54;;;;;;;;;;;;;;;8.19;87.49;103504.78;5043901;28;19925;-82
2022/01/17 13:26:23;;;;;;;;;;;;;;;8.10;87.89;103499.47;5044303;28;19925;-82
2022/01/17 13:28:49;;;;;;;;;;;;;;;8.04;87.91;103486.34;5045029;28;20007;-82
2022/01/17 13:31:15;;;;;;;;;;;;;;;7.97;88.79;103485.44;5036612;28;20005;-82
2022/01/17 13:33:41;;;;;;;;;;;;;;;7.98;88.92;103488.91;5045392;28;20302;-81
2022/01/17 13:36:06;;;;;;;;;;;;;;;8.03;88.27;103485.47;5038484;28;19916;-82
2022/01/17 13:38:31;;;;;;;;;;;;;;;8.05;89.12;103475.88;5055858;28;19928;-80